createdAt,value
2023-02-09T09:26:14.167Z,-0.13
2023-02-09T09:29:16.637Z,0.06
2023-02-09T09:32:24.626Z,0.06
2023-02-09T09:35:27.897Z,0.28
2023-02-09T09:38:30.742Z,0.45
2023-02-09T09:41:37.513Z,0.74
2023-02-09T09:44:47.305Z,0.67
2023-02-09T09:47:50.635Z,0.91
2023-02-09T09:50:56.969Z,1.14
2023-02-09T09:54:02.878Z,1.43
2023-02-09T09:57:19.340Z,1.57
2023-02-09T10:00:24.643Z,1.76
2023-02-09T10:03:27.702Z,1.66
2023-02-09T10:06:34.733Z,1.51
2023-02-09T10:09:43.214Z,1.51
2023-02-09T10:12:50.348Z,1.76
2023-02-09T10:15:54.653Z,1.99
2023-02-09T10:18:58.996Z,2.18
2023-02-09T10:22:01.533Z,2.32
2023-02-09T10:25:24.812Z,2.33
2023-02-09T10:28:31.045Z,2.34
2023-02-09T10:31:36.318Z,2.38
2023-02-09T10:34:45.505Z,2.35
2023-02-09T10:37:48.090Z,2.04
2023-02-09T10:40:51.365Z,1.96
2023-02-09T10:43:55.219Z,2.30
2023-02-09T10:47:11.315Z,2.73
2023-02-09T10:50:18.567Z,2.94
2023-02-09T10:53:24.963Z,3.05
2023-02-09T10:56:29.353Z,3.43
2023-02-09T10:59:36.159Z,3.08
2023-02-09T11:02:41.225Z,3.10
2023-02-09T11:05:45.761Z,3.12
2023-02-09T11:08:53.972Z,3.09
2023-02-09T11:11:56.731Z,3.52
2023-02-09T11:15:01.375Z,3.78
2023-02-09T11:18:07.492Z,3.52
2023-02-09T11:21:15.950Z,3.24
2023-02-09T11:24:32.161Z,3.44
2023-02-09T11:27:46.824Z,3.23
2023-02-09T11:31:04.471Z,3.47
2023-02-09T11:34:18.440Z,3.76
2023-02-09T11:37:30.812Z,3.68
2023-02-09T11:40:37.224Z,3.64
2023-02-09T11:43:43.044Z,3.42
2023-02-09T11:46:49.293Z,3.12
2023-02-09T11:49:54.756Z,3.20
2023-02-09T11:53:00.330Z,3.46
2023-02-09T11:56:06.350Z,3.14
2023-02-09T11:59:16.106Z,3.06
2023-02-09T12:02:38.499Z,3.13
2023-02-09T12:05:44.785Z,3.03
2023-02-09T12:09:00.313Z,2.99
2023-02-09T12:12:31.361Z,3.20
2023-02-09T12:15:52.944Z,3.36
2023-02-09T12:23:11.873Z,3.20
2023-02-09T12:26:42.697Z,3.33
2023-02-09T12:29:54.285Z,3.32
2023-02-09T12:33:42.655Z,3.42
2023-02-09T12:37:28.666Z,3.45
2023-02-09T12:49:33.538Z,3.80
2023-02-09T12:52:36.046Z,3.43
2023-02-09T12:55:39.904Z,3.29
2023-02-09T12:58:55.739Z,3.26
2023-02-09T13:02:13.538Z,3.16
2023-02-09T13:05:19.446Z,3.26
2023-02-09T13:08:48.480Z,3.40
2023-02-09T13:11:56.622Z,3.58
2023-02-09T13:14:59.143Z,3.60
2023-02-09T13:18:09.917Z,3.52
2023-02-09T13:21:21.693Z,3.42
2023-02-09T13:24:33.826Z,3.40
2023-02-09T13:27:48.443Z,3.31
2023-02-09T13:30:50.968Z,3.32
2023-02-09T13:33:56.899Z,3.47
2023-02-09T13:37:10.147Z,3.50
2023-02-09T13:40:18.753Z,3.34
2023-02-09T13:43:28.182Z,3.37
2023-02-09T13:46:35.174Z,3.13
2023-02-09T13:49:37.836Z,3.20
2023-02-09T13:52:40.964Z,3.40
2023-02-09T13:55:45.500Z,3.44
2023-02-09T13:58:50.359Z,3.45
2023-02-09T14:01:55.755Z,3.29
2023-02-09T14:05:03.032Z,3.20
2023-02-09T14:08:06.478Z,3.03
2023-02-09T14:11:33.233Z,3.03
2023-02-09T14:15:22.271Z,3.02
2023-02-09T14:18:34.304Z,2.90
2023-02-09T14:21:46.693Z,2.83
2023-02-09T14:24:49.162Z,2.81
2023-02-09T14:27:52.415Z,2.81
2023-02-09T14:30:56.347Z,2.75
2023-02-09T14:33:58.915Z,2.67
2023-02-09T14:37:05.111Z,2.50
2023-02-09T14:40:25.503Z,2.36
2023-02-09T14:43:28.059Z,2.31
2023-02-09T14:46:48.088Z,2.27
2023-02-09T14:49:50.560Z,2.29
2023-02-09T14:52:55.232Z,2.22
2023-02-09T14:55:58.189Z,2.17
2023-02-09T14:59:00.826Z,2.12
2023-02-09T15:02:16.640Z,2.17
2023-02-09T15:05:20.178Z,2.03
2023-02-09T15:08:25.012Z,1.98
2023-02-09T15:11:42.844Z,1.90
2023-02-09T15:14:47.292Z,1.88
2023-02-09T15:17:51.760Z,1.86
2023-02-09T15:20:54.514Z,1.77
2023-02-09T15:23:57.019Z,1.71
2023-02-09T15:26:59.569Z,1.60
2023-02-09T15:30:04.824Z,1.53
2023-02-09T15:33:12.276Z,1.46
